Thumrait, Oman
Current Conditions -  °F | °C
As of 2:55 PM on Friday 21 Nov 2014 (Local Time) from KQTH Reporting Station
Clear Clear  
Wind Chill: 89°   Ceiling: Unl
Heat Index: 89°   Visibility: 6mi
Dew Point: 41°   Wind: 13mph
Humidity: 19%   Direction: 60°ENE
Pressure: 30.07"   Gusts: 18mph
Location:  17.63°N, 54.02°E
Report Text: KQTH 211055Z 06011G16KT 9999 CLR 31/05 A3007 RMK AO2A SLP161 T03140050
Loading
Personal Weather Stations






























Interactive Weather Map New forecast layout! Learn more

10-Day Weather Forecast

Advertisements
Track Severe Weather on mobile